createdAt,value
2022-07-29T00:01:43.594Z,48.30
2022-07-29T00:04:13.377Z,48.44
2022-07-29T00:06:42.124Z,48.12
2022-07-29T00:09:09.981Z,48.26
2022-07-29T00:11:37.831Z,48.27
2022-07-29T00:14:06.951Z,48.58
2022-07-29T00:16:34.849Z,48.55
2022-07-29T00:19:02.877Z,48.43
2022-07-29T00:21:32.169Z,48.69
2022-07-29T00:24:00.170Z,48.35
2022-07-29T00:26:32.530Z,49.15
2022-07-29T00:29:31.933Z,48.78
2022-07-29T00:31:49.132Z,48.83
2022-07-29T00:34:31.011Z,48.86
2022-07-29T00:37:00.335Z,49.03
2022-07-29T00:39:28.287Z,49.20
2022-07-29T00:41:56.807Z,49.24
2022-07-29T00:44:24.659Z,49.11
2022-07-29T00:46:52.521Z,49.49
2022-07-29T00:49:20.496Z,49.35
2022-07-29T00:51:49.418Z,49.16
2022-07-29T00:54:19.040Z,49.55
2022-07-29T00:56:47.160Z,49.14
2022-07-29T00:59:14.970Z,49.70
2022-07-29T01:01:42.835Z,49.64
2022-07-29T01:04:10.743Z,49.28
2022-07-29T01:06:39.041Z,49.56
2022-07-29T01:09:07.408Z,49.12
2022-07-29T01:11:37.376Z,49.51
2022-07-29T01:14:09.133Z,50.03
2022-07-29T01:16:44.512Z,49.81
2022-07-29T01:19:33.765Z,49.70
2022-07-29T01:22:15.814Z,49.62
2022-07-29T01:25:04.483Z,49.47
2022-07-29T01:27:53.071Z,50.10
2022-07-29T01:30:24.579Z,50.03
2022-07-29T01:32:57.542Z,50.15
2022-07-29T01:35:28.339Z,50.00
2022-07-29T01:38:03.228Z,49.90
2022-07-29T01:40:36.834Z,50.23
2022-07-29T01:43:11.279Z,50.12
2022-07-29T01:45:43.472Z,50.25
2022-07-29T01:48:17.231Z,50.19
2022-07-29T01:50:51.371Z,50.11
2022-07-29T01:53:26.215Z,50.17
2022-07-29T01:55:55.545Z,50.19
2022-07-29T01:58:27.792Z,49.94
2022-07-29T02:00:59.339Z,50.01
2022-07-29T02:03:29.500Z,50.30
2022-07-29T02:06:00.361Z,50.90
2022-07-29T02:08:30.178Z,50.82
2022-07-29T02:10:59.862Z,51.18
2022-07-29T02:13:29.833Z,50.98
2022-07-29T02:16:00.457Z,51.10
2022-07-29T02:18:30.932Z,51.45
2022-07-29T02:21:01.522Z,51.53
2022-07-29T02:23:30.184Z,51.70
2022-07-29T02:25:59.921Z,51.63
2022-07-29T02:28:30.585Z,52.22
2022-07-29T02:31:03.270Z,52.25
2022-07-29T02:33:33.352Z,52.68
2022-07-29T02:36:02.874Z,52.25
2022-07-29T02:38:50.505Z,52.55
2022-07-29T02:41:20.816Z,52.39
2022-07-29T02:43:50.624Z,52.57
2022-07-29T02:46:29.533Z,52.65
2022-07-29T02:49:01.776Z,53.06
2022-07-29T02:51:43.468Z,53.45
2022-07-29T02:54:17.005Z,53.69
2022-07-29T02:56:46.353Z,53.31
2022-07-29T02:59:17.828Z,53.32
2022-07-29T03:01:47.859Z,53.28
2022-07-29T03:04:18.584Z,53.95
2022-07-29T03:06:48.127Z,53.72
2022-07-29T03:09:16.934Z,54.02
2022-07-29T03:11:50.605Z,53.96
2022-07-29T03:14:20.996Z,53.98
2022-07-29T03:16:51.701Z,53.62
2022-07-29T03:19:21.103Z,53.73
2022-07-29T03:21:49.317Z,53.80
2022-07-29T03:24:30.676Z,54.37
2022-07-29T03:26:58.959Z,54.13
2022-07-29T03:29:33.268Z,54.23
2022-07-29T03:32:08.035Z,53.76
2022-07-29T03:34:37.571Z,54.58
2022-07-29T03:37:06.730Z,54.42
2022-07-29T03:39:38.591Z,54.55
2022-07-29T03:42:08.824Z,55.07
2022-07-29T03:44:38.267Z,55.45
2022-07-29T03:47:10.212Z,54.25
2022-07-29T03:49:39.787Z,55.06
2022-07-29T03:52:08.016Z,54.55
2022-07-29T03:54:36.201Z,54.49
2022-07-29T03:57:07.773Z,54.92
2022-07-29T03:59:36.430Z,55.01
2022-07-29T04:02:05.310Z,55.45
2022-07-29T04:04:37.040Z,55.25
2022-07-29T04:07:05.551Z,55.07
2022-07-29T04:09:33.755Z,55.02
2022-07-29T04:12:04.086Z,55.60
2022-07-29T04:14:33.163Z,55.26
2022-07-29T04:17:01.179Z,55.53
2022-07-29T04:19:29.576Z,55.00
2022-07-29T04:21:58.785Z,55.24
2022-07-29T04:24:26.654Z,56.31
2022-07-29T04:26:55.274Z,56.07
2022-07-29T04:29:23.148Z,55.43
2022-07-29T04:31:50.969Z,55.60
2022-07-29T04:34:19.465Z,55.45
2022-07-29T04:36:47.805Z,55.76
2022-07-29T04:39:22.772Z,55.62
2022-07-29T04:41:52.594Z,55.50
2022-07-29T04:44:26.574Z,55.36
2022-07-29T04:46:58.492Z,55.37
2022-07-29T04:49:27.017Z,55.41
2022-07-29T04:51:55.728Z,55.17
2022-07-29T04:54:25.558Z,55.00
2022-07-29T04:56:53.551Z,55.51
2022-07-29T04:59:21.341Z,55.50
2022-07-29T05:01:49.289Z,55.01
2022-07-29T05:04:17.431Z,55.62
2022-07-29T05:06:45.528Z,55.24
2022-07-29T05:09:13.372Z,55.41
2022-07-29T05:11:42.574Z,54.91
2022-07-29T05:14:10.579Z,55.12
2022-07-29T05:16:40.066Z,54.94
2022-07-29T05:19:13.674Z,55.13
2022-07-29T05:21:42.117Z,55.08
2022-07-29T05:24:10.105Z,54.57
2022-07-29T05:26:37.945Z,54.73
2022-07-29T05:29:07.112Z,55.05
2022-07-29T05:31:35.470Z,54.92
2022-07-29T05:34:03.561Z,54.33
2022-07-29T05:36:31.447Z,53.90
2022-07-29T05:38:59.297Z,53.79
2022-07-29T05:41:27.212Z,53.18
2022-07-29T05:43:55.070Z,53.35
2022-07-29T05:46:24.360Z,53.77
2022-07-29T05:48:52.513Z,53.45
2022-07-29T05:51:20.316Z,53.10
2022-07-29T05:53:48.200Z,54.00
2022-07-29T05:56:16.365Z,53.75
2022-07-29T05:58:44.284Z,53.34
2022-07-29T06:01:12.137Z,53.62
2022-07-29T06:03:42.281Z,53.30
2022-07-29T06:06:10.114Z,52.87
2022-07-29T06:08:38.563Z,52.55
2022-07-29T06:11:07.136Z,52.96
2022-07-29T06:13:34.911Z,53.90
2022-07-29T06:16:02.850Z,53.56
2022-07-29T06:18:30.746Z,53.53
2022-07-29T06:21:00.060Z,53.32
2022-07-29T06:23:27.941Z,53.20
2022-07-29T06:25:55.788Z,52.53
2022-07-29T06:28:23.636Z,52.19
2022-07-29T06:30:51.466Z,52.46
2022-07-29T06:33:20.204Z,51.54
2022-07-29T06:35:53.627Z,51.91
2022-07-29T06:38:30.682Z,51.10
2022-07-29T06:41:03.088Z,51.36
2022-07-29T06:43:34.613Z,51.00
2022-07-29T06:46:03.505Z,50.14
2022-07-29T06:48:31.823Z,50.35
2022-07-29T06:51:00.146Z,49.99
2022-07-29T06:53:29.750Z,49.64
2022-07-29T06:55:59.112Z,49.25
2022-07-29T06:58:27.303Z,49.36
2022-07-29T07:01:00.209Z,49.16
2022-07-29T07:03:28.208Z,48.35
2022-07-29T07:05:56.843Z,48.87
2022-07-29T07:08:25.559Z,48.72
2022-07-29T07:10:56.216Z,48.63
2022-07-29T07:13:24.017Z,48.44
2022-07-29T07:15:52.784Z,48.08
2022-07-29T07:18:21.105Z,48.52
2022-07-29T07:20:51.946Z,48.01
2022-07-29T07:23:19.821Z,46.64
2022-07-29T07:25:47.651Z,47.22
2022-07-29T07:28:16.838Z,46.78
2022-07-29T07:30:44.776Z,46.17
2022-07-29T07:33:12.683Z,45.86
2022-07-29T07:35:40.825Z,46.17
2022-07-29T07:38:12.937Z,45.63
2022-07-29T07:40:41.286Z,44.69
2022-07-29T07:43:09.156Z,45.59
2022-07-29T07:45:38.943Z,45.25
2022-07-29T07:48:07.242Z,45.08
2022-07-29T07:50:35.148Z,44.77
2022-07-29T07:53:03.218Z,44.58
2022-07-29T07:55:47.544Z,44.71
2022-07-29T07:58:19.240Z,44.76
2022-07-29T08:00:49.039Z,44.79
2022-07-29T08:03:17.475Z,45.22
2022-07-29T08:05:47.483Z,44.89
2022-07-29T08:08:15.353Z,44.59
2022-07-29T08:10:56.785Z,44.75
2022-07-29T08:13:28.210Z,44.88
2022-07-29T08:16:01.943Z,44.79
2022-07-29T08:18:31.796Z,45.27
2022-07-29T08:21:00.455Z,45.69
2022-07-29T08:23:46.001Z,45.45
2022-07-29T08:26:16.996Z,45.72
2022-07-29T08:28:46.921Z,45.26
2022-07-29T08:31:16.661Z,45.84
2022-07-29T08:33:47.676Z,45.82
2022-07-29T08:36:15.597Z,45.87
2022-07-29T08:38:43.608Z,46.41
2022-07-29T08:41:11.571Z,45.80
2022-07-29T08:43:39.714Z,45.93
2022-07-29T08:46:07.965Z,45.55
2022-07-29T08:48:38.511Z,45.19
2022-07-29T08:51:09.000Z,45.34
2022-07-29T08:53:39.139Z,44.76
2022-07-29T08:56:07.972Z,44.74
2022-07-29T08:58:38.297Z,44.43
2022-07-29T09:01:07.574Z,44.07
2022-07-29T09:03:40.043Z,44.27
2022-07-29T09:06:08.403Z,44.49
2022-07-29T09:08:36.626Z,43.69
2022-07-29T09:11:05.303Z,43.36
2022-07-29T09:13:33.894Z,43.02
2022-07-29T09:16:07.149Z,42.78
2022-07-29T09:18:37.921Z,42.16
2022-07-29T09:21:25.943Z,42.36
2022-07-29T09:24:10.170Z,41.21
2022-07-29T09:26:39.433Z,41.28
2022-07-29T09:29:12.062Z,41.32
2022-07-29T09:31:43.767Z,40.62
2022-07-29T09:34:13.126Z,41.00
2022-07-29T09:36:43.604Z,41.05
2022-07-29T09:39:11.670Z,41.06
2022-07-29T09:41:48.032Z,41.98
2022-07-29T09:44:15.870Z,41.69
2022-07-29T09:46:58.410Z,41.38
2022-07-29T09:49:27.134Z,40.83
2022-07-29T09:52:07.354Z,40.79
2022-07-29T09:54:38.637Z,40.70
2022-07-29T09:57:09.890Z,41.01
2022-07-29T09:59:37.727Z,42.13
2022-07-29T10:02:23.718Z,41.13
2022-07-29T10:04:53.008Z,40.91
2022-07-29T10:07:22.223Z,40.86
2022-07-29T10:09:56.374Z,40.91
2022-07-29T10:12:25.032Z,40.44
2022-07-29T10:14:53.710Z,40.61
2022-07-29T10:17:22.709Z,40.80
2022-07-29T10:19:52.866Z,40.35
2022-07-29T10:22:43.670Z,40.52
2022-07-29T10:25:11.400Z,40.48
2022-07-29T10:27:40.135Z,40.48
2022-07-29T10:30:11.758Z,40.13
2022-07-29T10:32:54.318Z,39.68
2022-07-29T10:35:37.879Z,39.52
2022-07-29T10:38:45.733Z,40.40
2022-07-29T10:41:32.353Z,40.18
2022-07-29T10:44:07.404Z,40.47
2022-07-29T10:46:37.965Z,40.54
2022-07-29T10:49:11.607Z,40.91
2022-07-29T10:51:58.481Z,40.71
2022-07-29T10:54:46.158Z,41.54
2022-07-29T10:57:52.539Z,41.18
2022-07-29T11:00:33.033Z,41.04
2022-07-29T11:03:04.797Z,40.87
2022-07-29T11:05:59.914Z,40.63
2022-07-29T11:08:28.908Z,41.07
2022-07-29T11:11:32.306Z,40.69
2022-07-29T11:14:02.055Z,40.71
2022-07-29T11:17:07.157Z,40.78
2022-07-29T11:19:37.119Z,40.69
2022-07-29T11:22:11.322Z,40.86
2022-07-29T11:24:50.043Z,41.27
2022-07-29T11:27:20.906Z,40.58
2022-07-29T11:29:55.777Z,40.77
2022-07-29T11:32:25.410Z,41.28
2022-07-29T11:35:18.030Z,41.65
2022-07-29T11:37:52.830Z,41.23
2022-07-29T11:40:25.590Z,40.82
2022-07-29T11:42:53.834Z,41.13
2022-07-29T11:45:42.697Z,40.55
2022-07-29T11:48:28.432Z,40.60
2022-07-29T11:51:13.348Z,40.01
2022-07-29T11:53:41.777Z,39.78
2022-07-29T11:56:11.304Z,38.93
2022-07-29T11:58:44.314Z,38.93
2022-07-29T12:01:19.336Z,38.53
2022-07-29T12:03:47.164Z,37.96
2022-07-29T12:06:18.010Z,38.03
2022-07-29T12:08:47.380Z,38.23
2022-07-29T12:11:21.245Z,38.47
2022-07-29T12:13:50.490Z,38.09
2022-07-29T12:16:29.395Z,38.09
2022-07-29T12:18:59.383Z,37.30
2022-07-29T12:21:29.157Z,37.41
2022-07-29T12:24:03.401Z,37.25
2022-07-29T12:26:35.731Z,37.04
2022-07-29T12:29:07.309Z,37.22
2022-07-29T12:31:42.407Z,36.88
2022-07-29T12:34:12.781Z,36.59
2022-07-29T12:36:40.947Z,36.36
2022-07-29T12:39:10.090Z,35.63
2022-07-29T12:41:38.179Z,35.62
2022-07-29T12:44:06.441Z,35.38
2022-07-29T12:46:34.388Z,35.90
2022-07-29T12:49:04.358Z,36.49
2022-07-29T12:51:33.035Z,35.97
2022-07-29T12:54:06.023Z,36.30
2022-07-29T12:56:42.821Z,36.42
2022-07-29T12:59:16.996Z,36.29
2022-07-29T13:01:45.074Z,36.25
2022-07-29T13:04:26.914Z,36.09
2022-07-29T13:07:01.185Z,36.32
2022-07-29T13:09:40.398Z,36.30
2022-07-29T13:12:10.882Z,36.39
2022-07-29T13:14:40.300Z,35.59
2022-07-29T13:17:09.832Z,35.80
2022-07-29T13:19:41.442Z,35.63
2022-07-29T13:22:09.590Z,35.28
2022-07-29T13:24:48.189Z,34.86
2022-07-29T13:27:16.393Z,34.72
2022-07-29T13:29:44.229Z,34.23
2022-07-29T13:32:14.233Z,34.12
2022-07-29T13:34:43.689Z,33.60
2022-07-29T13:37:12.105Z,33.78
2022-07-29T13:39:40.717Z,34.00
2022-07-29T13:42:11.034Z,33.49
2022-07-29T13:44:41.030Z,33.60
2022-07-29T13:47:09.223Z,33.83
2022-07-29T13:49:37.481Z,33.65
2022-07-29T13:52:08.381Z,33.85
2022-07-29T13:54:42.107Z,34.17
2022-07-29T13:57:11.552Z,33.73
2022-07-29T13:59:40.011Z,34.46
2022-07-29T14:02:08.356Z,33.77
2022-07-29T14:04:36.642Z,33.57
2022-07-29T14:07:09.289Z,33.11
2022-07-29T14:09:41.435Z,33.38
2022-07-29T14:12:11.039Z,32.42
2022-07-29T14:14:38.860Z,31.58
2022-07-29T14:17:08.095Z,31.38
2022-07-29T14:19:38.693Z,30.75
2022-07-29T14:22:09.483Z,30.20
2022-07-29T14:24:39.593Z,30.27
2022-07-29T14:27:09.188Z,29.98
2022-07-29T14:29:38.738Z,29.84
2022-07-29T14:32:07.879Z,29.90
2022-07-29T14:34:36.594Z,29.48
2022-07-29T14:37:06.414Z,30.35
2022-07-29T14:39:42.832Z,30.08
2022-07-29T14:42:11.704Z,30.06
2022-07-29T14:44:42.081Z,29.39
2022-07-29T14:47:10.343Z,29.81
2022-07-29T14:49:38.515Z,29.48
2022-07-29T14:52:06.913Z,29.13
2022-07-29T14:54:36.102Z,29.54
2022-07-29T14:57:04.063Z,29.44
2022-07-29T14:59:31.973Z,29.34
2022-07-29T15:02:00.202Z,29.48
2022-07-29T15:04:32.635Z,29.97
2022-07-29T15:07:00.592Z,29.34
2022-07-29T15:09:28.477Z,29.35
2022-07-29T15:11:58.027Z,29.34
2022-07-29T15:14:26.090Z,28.13
2022-07-29T15:16:54.297Z,28.04
2022-07-29T15:19:22.227Z,27.67
2022-07-29T15:21:51.411Z,27.43
2022-07-29T15:24:19.556Z,27.46
2022-07-29T15:26:47.939Z,26.29
2022-07-29T15:29:18.335Z,26.21
2022-07-29T15:31:46.249Z,25.95
2022-07-29T15:34:14.254Z,25.15
2022-07-29T15:36:52.094Z,24.80
2022-07-29T15:39:21.174Z,25.68
2022-07-29T15:41:49.127Z,26.47
2022-07-29T15:44:19.878Z,26.96
2022-07-29T15:47:08.053Z,26.61
2022-07-29T15:49:47.134Z,27.54
2022-07-29T15:52:19.024Z,28.08
2022-07-29T15:54:52.715Z,27.80
2022-07-29T15:57:20.561Z,28.08
2022-07-29T15:59:49.786Z,28.77
2022-07-29T16:02:17.726Z,28.27
2022-07-29T16:04:45.623Z,28.41
2022-07-29T16:07:14.223Z,28.93
2022-07-29T16:09:42.532Z,28.91
2022-07-29T16:12:15.435Z,29.01
2022-07-29T16:14:44.232Z,29.36
2022-07-29T16:17:14.358Z,29.47
2022-07-29T16:19:43.309Z,30.30
2022-07-29T16:22:11.349Z,29.81
2022-07-29T16:24:39.350Z,30.24
2022-07-29T16:27:07.838Z,29.83
2022-07-29T16:29:36.929Z,29.69
2022-07-29T16:32:05.518Z,29.62
2022-07-29T16:34:34.950Z,29.84
2022-07-29T16:37:03.342Z,29.40
2022-07-29T16:39:34.683Z,29.11
2022-07-29T16:42:05.154Z,29.74
2022-07-29T16:44:35.369Z,29.49
2022-07-29T16:47:03.965Z,29.47
2022-07-29T16:49:32.245Z,29.43
2022-07-29T16:52:01.765Z,29.50
2022-07-29T16:54:29.797Z,29.65
2022-07-29T16:57:00.585Z,30.07
2022-07-29T16:59:29.085Z,29.72
2022-07-29T17:01:57.705Z,29.47
2022-07-29T17:04:26.024Z,30.27
2022-07-29T17:06:53.899Z,30.02
2022-07-29T17:09:23.294Z,30.12
2022-07-29T17:11:55.147Z,30.22
2022-07-29T17:14:25.524Z,30.60
2022-07-29T17:17:01.186Z,30.47
2022-07-29T17:19:31.857Z,31.00
2022-07-29T17:22:14.055Z,30.49
2022-07-29T17:24:45.348Z,31.24
2022-07-29T17:27:13.745Z,31.57
2022-07-29T17:29:42.244Z,31.55
2022-07-29T17:32:11.527Z,31.77
2022-07-29T17:34:40.545Z,31.83
2022-07-29T17:37:10.649Z,32.31
2022-07-29T17:39:40.868Z,32.60
2022-07-29T17:42:10.998Z,32.56
2022-07-29T17:44:39.242Z,32.69
2022-07-29T17:47:07.919Z,33.00
2022-07-29T17:49:43.736Z,33.01
2022-07-29T17:52:11.888Z,32.99
2022-07-29T17:54:39.739Z,33.29
2022-07-29T17:57:08.204Z,33.30
2022-07-29T17:59:37.441Z,33.20
2022-07-29T18:02:05.454Z,33.64
2022-07-29T18:04:33.737Z,33.66
2022-07-29T18:07:01.936Z,33.47
2022-07-29T18:09:30.052Z,33.76
2022-07-29T18:11:57.838Z,33.92
2022-07-29T18:14:25.955Z,34.17
2022-07-29T18:16:57.613Z,34.31
2022-07-29T18:19:25.703Z,33.93
2022-07-29T18:21:55.268Z,33.83
2022-07-29T18:24:25.406Z,34.25
2022-07-29T18:26:53.800Z,34.49
2022-07-29T18:29:21.935Z,34.94
2022-07-29T18:31:50.126Z,34.96
2022-07-29T18:34:20.121Z,34.73
2022-07-29T18:36:49.361Z,35.08
2022-07-29T18:39:20.927Z,34.99
2022-07-29T18:41:52.133Z,35.30
2022-07-29T18:44:21.905Z,35.91
2022-07-29T18:46:51.347Z,35.84
2022-07-29T18:49:20.937Z,35.86
2022-07-29T18:51:48.949Z,35.98
2022-07-29T18:54:17.547Z,35.89
2022-07-29T18:56:48.632Z,36.18
2022-07-29T18:59:19.609Z,36.63
2022-07-29T19:01:48.433Z,36.27
2022-07-29T19:04:17.022Z,36.53
2022-07-29T19:06:46.440Z,36.55
2022-07-29T19:09:14.365Z,36.59
2022-07-29T19:11:42.176Z,36.45
2022-07-29T19:14:10.026Z,36.38
2022-07-29T19:16:37.936Z,36.89
2022-07-29T19:19:07.192Z,36.98
2022-07-29T19:21:35.887Z,36.73
2022-07-29T19:24:07.730Z,37.29
2022-07-29T19:26:42.058Z,37.49
2022-07-29T19:29:09.995Z,37.30
2022-07-29T19:31:37.986Z,37.44
2022-07-29T19:34:05.942Z,37.68
2022-07-29T19:36:33.827Z,37.82
2022-07-29T19:39:02.146Z,38.14
2022-07-29T19:41:31.495Z,38.26
2022-07-29T19:43:59.389Z,38.70
2022-07-29T19:46:29.053Z,38.99
2022-07-29T19:48:57.844Z,38.80
2022-07-29T19:51:28.073Z,38.84
2022-07-29T19:53:56.041Z,38.58
2022-07-29T19:56:26.563Z,38.29
2022-07-29T19:58:55.771Z,38.54
2022-07-29T20:01:24.685Z,38.41
2022-07-29T20:03:53.801Z,39.81
2022-07-29T20:06:22.996Z,40.09
2022-07-29T20:08:55.411Z,41.52
2022-07-29T20:11:26.430Z,42.49
2022-07-29T20:13:55.600Z,43.44
2022-07-29T20:16:23.532Z,44.68
2022-07-29T20:18:53.360Z,44.55
2022-07-29T20:21:21.204Z,45.15
2022-07-29T20:23:49.023Z,45.91
2022-07-29T20:26:16.809Z,45.95
2022-07-29T20:28:47.632Z,46.92
2022-07-29T20:31:18.856Z,47.24
2022-07-29T20:33:46.863Z,47.79
2022-07-29T20:36:14.872Z,47.71
2022-07-29T20:38:42.670Z,48.31
2022-07-29T20:41:10.523Z,48.33
2022-07-29T20:43:39.183Z,48.18
2022-07-29T20:46:07.267Z,48.56
2022-07-29T20:48:36.449Z,48.34
2022-07-29T20:51:04.249Z,48.58
2022-07-29T20:53:33.239Z,49.18
2022-07-29T20:56:01.504Z,49.96
2022-07-29T20:58:29.278Z,49.49
2022-07-29T21:00:57.530Z,50.79
2022-07-29T21:03:25.367Z,50.64
2022-07-29T21:05:54.571Z,50.73
2022-07-29T21:08:22.401Z,51.25
2022-07-29T21:10:50.222Z,51.40
2022-07-29T21:13:19.699Z,52.28
2022-07-29T21:15:49.548Z,51.97
2022-07-29T21:18:27.808Z,52.20
2022-07-29T21:20:57.430Z,52.28
2022-07-29T21:23:25.793Z,52.82
2022-07-29T21:25:54.197Z,53.12
2022-07-29T21:28:27.116Z,53.30
2022-07-29T21:30:55.031Z,53.75
2022-07-29T21:33:23.072Z,53.80
2022-07-29T21:38:40.209Z,54.28
2022-07-29T21:41:08.137Z,54.16
2022-07-29T21:43:36.052Z,54.14
2022-07-29T21:46:04.074Z,54.64
2022-07-29T21:48:31.907Z,53.50
2022-07-29T21:50:59.891Z,53.14
2022-07-29T21:53:27.843Z,53.54
2022-07-29T21:55:57.208Z,53.87
2022-07-29T21:58:25.305Z,53.59
2022-07-29T22:00:53.875Z,54.73
2022-07-29T22:03:21.982Z,55.63
2022-07-29T22:05:49.865Z,56.24
2022-07-29T22:08:17.677Z,57.13
2022-07-29T22:10:45.540Z,58.89
2022-07-29T22:13:14.718Z,59.65
2022-07-29T22:15:46.962Z,61.26
2022-07-29T22:18:20.767Z,62.39
2022-07-29T22:20:49.466Z,63.20
2022-07-29T22:23:17.481Z,63.95
2022-07-29T22:25:45.305Z,65.81
2022-07-29T22:28:14.510Z,66.29
2022-07-29T22:30:42.467Z,68.21
2022-07-29T22:33:17.464Z,69.66
2022-07-29T22:35:48.626Z,70.82
2022-07-29T22:38:17.064Z,75.07
2022-07-29T22:40:45.005Z,76.32
2022-07-29T22:43:14.480Z,76.61
2022-07-29T22:45:42.515Z,77.43
2022-07-29T22:48:10.524Z,78.72
2022-07-29T22:50:39.449Z,79.59
2022-07-29T22:53:07.223Z,81.36
2022-07-29T22:55:35.062Z,83.04
2022-07-29T22:58:02.876Z,84.48
2022-07-29T23:00:32.306Z,84.69
2022-07-29T23:03:00.177Z,84.15
2022-07-29T23:05:28.085Z,85.46
2022-07-29T23:07:55.980Z,86.59
2022-07-29T23:10:23.771Z,87.15
2022-07-29T23:12:51.547Z,87.79
2022-07-29T23:15:19.579Z,86.02
2022-07-29T23:17:49.019Z,86.93
2022-07-29T23:20:16.869Z,87.42
2022-07-29T23:22:44.817Z,88.45
2022-07-29T23:25:12.684Z,87.40
2022-07-29T23:27:40.561Z,87.53
2022-07-29T23:30:09.338Z,88.27
2022-07-29T23:32:37.143Z,89.28
2022-07-29T23:35:08.130Z,88.65
2022-07-29T23:37:36.547Z,88.30
2022-07-29T23:40:04.861Z,88.73
2022-07-29T23:42:32.751Z,89.00
2022-07-29T23:45:00.553Z,89.75
2022-07-29T23:47:29.012Z,89.46
2022-07-29T23:49:56.886Z,91.39
2022-07-29T23:52:26.081Z,90.64
2022-07-29T23:54:55.191Z,88.61
2022-07-29T23:57:42.949Z,88.51
